createdAt,value
2017-04-04T00:00:43.203Z,38.43
2017-04-04T00:01:53.443Z,38.43
2017-04-04T00:03:03.366Z,38.24
2017-04-04T00:04:13.293Z,38.14
2017-04-04T00:05:22.907Z,38.35
2017-04-04T00:06:32.835Z,38.33
2017-04-04T00:07:42.133Z,38.53
2017-04-04T00:08:51.754Z,38.53
2017-04-04T00:10:01.993Z,38.43
2017-04-04T00:11:12.231Z,38.43
2017-04-04T00:12:22.477Z,38.53
2017-04-04T00:13:32.727Z,38.62
2017-04-04T00:14:42.971Z,38.43
2017-04-04T00:15:52.588Z,38.62
2017-04-04T00:17:02.523Z,38.33
2017-04-04T00:18:12.762Z,38.14
2017-04-04T00:19:23.006Z,38.53
2017-04-04T00:20:32.942Z,38.53
2017-04-04T00:21:42.874Z,38.62
2017-04-04T00:22:52.808Z,38.53
2017-04-04T00:24:02.421Z,38.53
2017-04-04T00:25:12.658Z,38.35
2017-04-04T00:26:22.274Z,38.54
2017-04-04T00:27:32.517Z,38.53
2017-04-04T00:28:42.765Z,38.43
2017-04-04T00:29:52.690Z,38.43
2017-04-04T00:31:02.617Z,38.53
2017-04-04T00:32:12.862Z,38.53
2017-04-04T00:33:23.100Z,38.72
2017-04-04T00:34:33.341Z,38.53
2017-04-04T00:35:43.269Z,38.62
2017-04-04T00:36:53.512Z,38.62
2017-04-04T00:38:03.750Z,38.81
2017-04-04T00:39:13.997Z,38.62
2017-04-04T00:40:24.233Z,38.43
2017-04-04T00:41:34.161Z,38.81
2017-04-04T00:42:44.398Z,38.43
2017-04-04T00:43:54.010Z,38.53
2017-04-04T00:45:03.982Z,38.72
2017-04-04T00:46:13.287Z,38.72
2017-04-04T00:47:23.525Z,38.72
2017-04-04T00:48:33.140Z,38.72
2017-04-04T00:49:42.759Z,38.72
2017-04-04T00:50:53.009Z,38.72
2017-04-04T00:52:02.621Z,38.81
2017-04-04T00:53:12.230Z,38.72
2017-04-04T00:54:22.154Z,38.62
2017-04-04T00:55:32.404Z,38.53
2017-04-04T00:56:42.641Z,38.53
2017-04-04T00:57:52.879Z,38.43
2017-04-04T00:59:02.804Z,38.53
2017-04-04T01:00:13.044Z,38.91
2017-04-04T01:01:22.981Z,38.72
2017-04-04T01:02:33.225Z,38.91
2017-04-04T01:03:43.149Z,38.81
2017-04-04T01:04:53.083Z,38.43
2017-04-04T01:06:03.318Z,38.43
2017-04-04T01:07:13.557Z,38.43
2017-04-04T01:08:23.802Z,38.62
2017-04-04T01:09:33.420Z,39.11
2017-04-04T01:10:43.662Z,39.2
2017-04-04T01:11:53.899Z,39.11
2017-04-04T01:13:03.827Z,39.03
2017-04-04T01:14:14.064Z,38.91
2017-04-04T01:15:23.991Z,39.01
2017-04-04T01:16:34.233Z,38.83
2017-04-04T01:17:44.475Z,38.81
2017-04-04T01:18:54.716Z,38.93
2017-04-04T01:20:04.955Z,38.81
2017-04-04T01:21:15.198Z,38.81
2017-04-04T01:22:25.128Z,38.81
2017-04-04T01:23:35.055Z,38.62
2017-04-04T01:24:45.292Z,38.53
2017-04-04T01:25:55.218Z,38.53
2017-04-04T01:27:05.460Z,38.43
2017-04-04T01:28:15.082Z,38.43
2017-04-04T01:29:25.323Z,38.43
2017-04-04T01:30:35.247Z,38.33
2017-04-04T01:31:45.177Z,38.43
2017-04-04T01:32:55.110Z,38.53
2017-04-04T01:34:05.041Z,38.62
2017-04-04T01:35:15.278Z,38.72
2017-04-04T01:36:25.516Z,38.43
2017-04-04T01:37:35.752Z,38.43
2017-04-04T01:38:45.997Z,38.43
2017-04-04T01:39:55.612Z,38.62
2017-04-04T01:41:05.539Z,38.62
2017-04-04T01:42:15.820Z,38.72
2017-04-04T01:43:25.752Z,38.72
2017-04-04T01:44:35.997Z,38.62
2017-04-04T01:45:45.616Z,38.72
2017-04-04T01:46:55.859Z,38.62
2017-04-04T01:48:06.102Z,38.53
2017-04-04T01:49:16.028Z,38.45
2017-04-04T01:50:26.275Z,38.62
2017-04-04T01:51:36.202Z,38.72
2017-04-04T01:52:46.133Z,38.33
2017-04-04T01:53:56.372Z,38.81
2017-04-04T01:55:06.615Z,38.53
2017-04-04T01:56:16.852Z,38.62
2017-04-04T01:57:26.777Z,38.81
2017-04-04T01:58:37.020Z,38.54
2017-04-04T01:59:46.945Z,38.62
2017-04-04T02:00:56.888Z,38.53
2017-04-04T02:02:07.126Z,38.43
2017-04-04T02:03:17.059Z,38.43
2017-04-04T02:04:27.297Z,38.35
2017-04-04T02:05:37.535Z,38.64
2017-04-04T02:06:47.147Z,38.62
2017-04-04T02:07:57.400Z,38.53
2017-04-04T02:09:07.328Z,38.33
2017-04-04T02:10:17.562Z,38.72
2017-04-04T02:11:27.807Z,38.62
2017-04-04T02:12:38.047Z,38.53
2017-04-04T02:13:48.293Z,38.43
2017-04-04T02:14:58.222Z,38.53
2017-04-04T02:16:08.144Z,38.43
2017-04-04T02:17:18.070Z,38.72
2017-04-04T02:18:28.307Z,38.53
2017-04-04T02:19:38.239Z,38.33
2017-04-04T02:20:48.485Z,38.53
2017-04-04T02:21:58.414Z,38.53
2017-04-04T02:23:08.344Z,38.62
2017-04-04T02:24:17.956Z,38.53
2017-04-04T02:25:27.882Z,38.53
2017-04-04T02:26:37.809Z,38.54
2017-04-04T02:27:47.740Z,38.43
2017-04-04T02:28:57.663Z,38.43
2017-04-04T02:30:07.899Z,38.64
2017-04-04T02:31:17.526Z,38.54
2017-04-04T02:32:27.143Z,38.26
2017-04-04T02:33:37.383Z,38.26
2017-04-04T02:34:47.630Z,38.16
2017-04-04T02:35:57.565Z,38.06
2017-04-04T02:37:07.806Z,38.26
2017-04-04T02:38:18.045Z,38.26
2017-04-04T02:39:28.287Z,38.45
2017-04-04T02:40:38.534Z,38.26
2017-04-04T02:41:48.149Z,38.16
2017-04-04T02:42:58.390Z,37.87
2017-04-04T02:44:08.632Z,38.06
2017-04-04T02:45:17.936Z,37.77
2017-04-04T02:46:28.175Z,37.68
2017-04-04T02:47:37.786Z,37.48
2017-04-04T02:48:47.710Z,37.58
2017-04-04T02:49:57.950Z,37.77
2017-04-04T02:51:08.195Z,37.87
2017-04-04T02:52:17.804Z,37.77
2017-04-04T02:53:27.415Z,37.68
2017-04-04T02:54:37.661Z,37.77
2017-04-04T02:55:47.903Z,37.68
2017-04-04T02:56:58.143Z,37.58
2017-04-04T02:58:08.389Z,37.68
2017-04-04T02:59:18.629Z,37.68
2017-04-04T03:00:28.556Z,37.68
2017-04-04T03:01:38.801Z,37.68
2017-04-04T03:02:49.040Z,37.87
2017-04-04T03:03:58.654Z,37.68
2017-04-04T03:05:08.890Z,37.77
2017-04-04T03:06:19.151Z,37.87
2017-04-04T03:07:29.086Z,37.77
2017-04-04T03:08:39.009Z,37.58
2017-04-04T03:09:48.937Z,37.68
2017-04-04T03:10:59.172Z,37.68
2017-04-04T03:12:09.416Z,37.77
2017-04-04T03:13:19.032Z,37.77
2017-04-04T03:14:29.268Z,37.87
2017-04-04T03:15:39.507Z,37.48
2017-04-04T03:16:49.439Z,37.87
2017-04-04T03:17:59.362Z,37.19
2017-04-04T03:19:09.325Z,37.87
2017-04-04T03:20:19.252Z,37.39
2017-04-04T03:21:29.179Z,37.48
2017-04-04T03:22:39.105Z,37.68
2017-04-04T03:23:49.343Z,37.77
2017-04-04T03:24:59.596Z,37.39
2017-04-04T03:26:09.839Z,37.68
2017-04-04T03:27:20.080Z,37.39
2017-04-04T03:28:30.327Z,37.1
2017-04-04T03:29:40.566Z,37.48
2017-04-04T03:30:50.814Z,37.19
2017-04-04T03:32:00.740Z,37.19
2017-04-04T03:33:10.993Z,37.29
2017-04-04T03:34:20.916Z,37.19
2017-04-04T03:35:30.532Z,37.39
2017-04-04T03:36:40.459Z,37.48
2017-04-04T03:37:50.711Z,37.68
2017-04-04T03:39:00.013Z,37.1
2017-04-04T03:40:09.941Z,37.77
2017-04-04T03:41:20.182Z,37.29
2017-04-04T03:42:30.418Z,37.39
2017-04-04T03:43:40.701Z,37.39
2017-04-04T03:44:50.941Z,37.29
2017-04-04T03:46:00.876Z,37.39
2017-04-04T03:47:11.114Z,37.39
2017-04-04T03:48:20.732Z,37.19
2017-04-04T03:49:30.343Z,37.58
2017-04-04T03:50:40.269Z,37.29
2017-04-04T03:51:50.507Z,37.48
2017-04-04T03:53:00.752Z,37.29
2017-04-04T03:54:10.680Z,37.58
2017-04-04T03:55:20.918Z,37.19
2017-04-04T03:56:31.163Z,37.39
2017-04-04T03:57:41.405Z,37.68
2017-04-04T03:58:51.330Z,37.58
2017-04-04T04:00:01.579Z,37.48
2017-04-04T04:01:11.506Z,37.68
2017-04-04T04:02:21.435Z,37.68
2017-04-04T04:03:31.677Z,37.68
2017-04-04T04:04:41.290Z,37.19
2017-04-04T04:05:50.910Z,37.48
2017-04-04T04:07:01.148Z,37.58
2017-04-04T04:08:11.073Z,37.77
2017-04-04T04:09:21.307Z,37.58
2017-04-04T04:10:31.750Z,37.29
2017-04-04T04:11:42.001Z,37.68
2017-04-04T04:12:52.242Z,37.96
2017-04-04T04:14:02.164Z,37.68
2017-04-04T04:15:12.089Z,37.39
2017-04-04T04:16:21.704Z,37.77
2017-04-04T04:17:31.316Z,37.58
2017-04-04T04:18:41.254Z,37.19
2017-04-04T04:19:50.871Z,37.77
2017-04-04T04:21:00.481Z,37.48
2017-04-04T04:22:09.787Z,37.48
2017-04-04T04:23:19.716Z,37.77
2017-04-04T04:24:29.339Z,37.68
2017-04-04T04:25:39.583Z,37.39
2017-04-04T04:26:49.869Z,37.48
2017-04-04T04:28:00.108Z,37.58
2017-04-04T04:29:10.352Z,37.58
2017-04-04T04:30:20.592Z,37.19
2017-04-04T04:31:30.833Z,37.19
2017-04-04T04:32:40.451Z,37.58
2017-04-04T04:33:50.381Z,37.77
2017-04-04T04:35:00.310Z,37.77
2017-04-04T04:36:10.244Z,37.68
2017-04-04T04:37:20.175Z,38.16
2017-04-04T04:38:29.793Z,38.26
2017-04-04T04:39:40.037Z,37.96
2017-04-04T04:40:50.276Z,38.54
2017-04-04T04:42:00.520Z,38.45
2017-04-04T04:43:10.461Z,38.45
2017-04-04T04:44:20.699Z,38.45
2017-04-04T04:45:30.935Z,38.83
2017-04-04T04:46:41.180Z,38.74
2017-04-04T04:47:51.103Z,38.54
2017-04-04T04:49:01.027Z,38.64
2017-04-04T04:50:11.318Z,38.93
2017-04-04T04:51:21.257Z,38.93
2017-04-04T04:52:31.501Z,38.83
2017-04-04T04:53:41.737Z,38.74
2017-04-04T04:54:51.982Z,39.03
2017-04-04T04:56:02.218Z,39.12
2017-04-04T04:57:12.153Z,39.12
2017-04-04T04:58:21.766Z,39.22
2017-04-04T04:59:31.698Z,38.93
2017-04-04T05:00:41.324Z,39.12
2017-04-04T05:01:50.628Z,39.12
2017-04-04T05:03:00.556Z,39.22
2017-04-04T05:04:10.490Z,38.93
2017-04-04T05:05:20.105Z,39.03
2017-04-04T05:06:30.349Z,39.03
2017-04-04T05:07:40.280Z,39.03
2017-04-04T05:08:50.204Z,39.22
2017-04-04T05:09:59.814Z,39.41
2017-04-04T05:11:10.054Z,39.22
2017-04-04T05:12:20.290Z,39.12
2017-04-04T05:13:30.528Z,39.12
2017-04-04T05:14:40.767Z,39.22
2017-04-04T05:15:51.015Z,39.12
2017-04-04T05:17:00.940Z,39.03
2017-04-04T05:18:10.864Z,39.22
2017-04-04T05:19:21.159Z,39.12
2017-04-04T05:20:31.397Z,39.03
2017-04-04T05:21:41.010Z,39.03
2017-04-04T05:22:50.952Z,39.03
2017-04-04T05:24:00.568Z,39.22
2017-04-04T05:25:10.186Z,39.12
2017-04-04T05:26:20.425Z,39.22
2017-04-04T05:27:30.354Z,38.93
2017-04-04T05:28:40.274Z,38.93
2017-04-04T05:29:50.507Z,39.22
2017-04-04T05:31:00.744Z,39.12
2017-04-04T05:32:10.988Z,39.12
2017-04-04T05:33:20.915Z,38.93
2017-04-04T05:34:31.152Z,39.22
2017-04-04T05:35:41.080Z,39.22
2017-04-04T05:36:51.326Z,39.22
2017-04-04T05:38:01.257Z,39.22
2017-04-04T05:39:11.502Z,39.12
2017-04-04T05:40:21.435Z,38.74
2017-04-04T05:41:31.371Z,39.12
2017-04-04T05:42:41.671Z,39.03
2017-04-04T05:43:51.607Z,39.12
2017-04-04T05:45:01.844Z,39.22
2017-04-04T05:46:11.776Z,39.12
2017-04-04T05:47:22.018Z,39.03
2017-04-04T05:48:32.257Z,38.83
2017-04-04T05:49:42.498Z,39.12
2017-04-04T05:50:52.738Z,39.12
2017-04-04T05:52:02.357Z,38.83
2017-04-04T05:53:12.300Z,39.12
2017-04-04T05:54:21.909Z,38.83
2017-04-04T05:55:32.145Z,38.83
2017-04-04T05:56:42.384Z,38.93
2017-04-04T05:57:52.629Z,39.12
2017-04-04T05:59:02.247Z,39.12
2017-04-04T06:00:12.182Z,39.12
2017-04-04T06:01:21.520Z,39.03
2017-04-04T06:02:31.446Z,39.12
2017-04-04T06:03:41.372Z,39.12
2017-04-04T06:04:51.628Z,39.03
2017-04-04T06:06:01.558Z,39.03
2017-04-04T06:07:11.180Z,39.22
2017-04-04T06:08:21.106Z,39.12
2017-04-04T06:09:30.723Z,39.79
2017-04-04T06:10:40.967Z,39.12
2017-04-04T06:11:51.263Z,39.31
2017-04-04T06:13:01.554Z,39.12
2017-04-04T06:14:11.485Z,39.12
2017-04-04T06:15:21.763Z,39.03
2017-04-04T06:16:32.014Z,39.03
2017-04-04T06:17:42.251Z,39.12
2017-04-04T06:18:52.485Z,39.22
2017-04-04T06:20:02.413Z,39.12
2017-04-04T06:21:12.653Z,39.12
2017-04-04T06:22:22.581Z,38.83
2017-04-04T06:23:32.206Z,39.22
2017-04-04T06:24:42.442Z,38.83
2017-04-04T06:25:52.686Z,39.31
2017-04-04T06:27:02.299Z,39.22
2017-04-04T06:28:11.914Z,39.22
2017-04-04T06:29:21.524Z,39.22
2017-04-04T06:30:31.765Z,39.22
2017-04-04T06:31:41.696Z,39.12
2017-04-04T06:32:51.940Z,39.12
2017-04-04T06:34:01.558Z,39.12
2017-04-04T06:35:11.797Z,39.22
2017-04-04T06:36:21.726Z,39.22
2017-04-04T06:37:31.973Z,39.22
2017-04-04T06:38:41.899Z,39.12
2017-04-04T06:39:51.831Z,39.22
2017-04-04T06:41:01.443Z,38.83
2017-04-04T06:42:11.059Z,39.12
2017-04-04T06:43:21.294Z,39.41
2017-04-04T06:44:30.604Z,38.93
2017-04-04T06:45:40.534Z,39.12
2017-04-04T06:46:50.470Z,39.12
2017-04-04T06:48:00.715Z,39.22
2017-04-04T06:49:10.957Z,38.93
2017-04-04T06:50:20.572Z,39.12
2017-04-04T06:51:30.813Z,39.41
2017-04-04T06:52:40.745Z,39.41
2017-04-04T06:53:50.986Z,39.03
2017-04-04T06:55:00.910Z,39.61
2017-04-04T06:56:10.832Z,38.93
2017-04-04T06:57:20.765Z,39.41
2017-04-04T06:58:30.754Z,38.93
2017-04-04T06:59:40.995Z,39.51
2017-04-04T07:00:51.234Z,39.51
2017-04-04T07:02:01.475Z,39.12
2017-04-04T07:03:11.412Z,38.93
2017-04-04T07:04:21.658Z,39.03
2017-04-04T07:05:31.900Z,39.03
2017-04-04T07:06:41.827Z,39.12
2017-04-04T07:07:52.081Z,39.31
2017-04-04T07:09:02.348Z,39.61
2017-04-04T07:10:12.281Z,39.41
2017-04-04T07:11:21.592Z,38.93
2017-04-04T07:12:31.833Z,39.03
2017-04-04T07:13:41.755Z,39.79
2017-04-04T07:14:51.991Z,39.41
2017-04-04T07:16:01.915Z,39.41
2017-04-04T07:17:12.155Z,39.79
2017-04-04T07:18:22.093Z,39.41
2017-04-04T07:19:32.354Z,39.61
2017-04-04T07:20:42.294Z,39.31
2017-04-04T07:21:51.906Z,39.7
2017-04-04T07:23:02.149Z,39.79
2017-04-04T07:24:12.397Z,39.7
2017-04-04T07:25:22.642Z,39.7
2017-04-04T07:26:31.941Z,39.7
2017-04-04T07:27:41.600Z,39.79
2017-04-04T07:28:51.213Z,39.79
2017-04-04T07:30:01.139Z,39.41
2017-04-04T07:31:11.378Z,39.7
2017-04-04T07:32:20.992Z,39.51
2017-04-04T07:33:31.233Z,39.7
2017-04-04T07:34:41.159Z,39.7
2017-04-04T07:35:51.408Z,39.41
2017-04-04T07:37:01.339Z,39.41
2017-04-04T07:38:11.586Z,39.51
2017-04-04T07:39:21.516Z,39.41
2017-04-04T07:40:31.758Z,39.7
2017-04-04T07:41:42.003Z,39.79
2017-04-04T07:42:51.302Z,39.7
2017-04-04T07:44:01.228Z,39.22
2017-04-04T07:45:11.209Z,39.79
2017-04-04T07:46:21.463Z,39.61
2017-04-04T07:47:31.392Z,39.41
2017-04-04T07:48:41.319Z,39.79
2017-04-04T07:49:51.248Z,39.7
2017-04-04T07:51:01.484Z,39.51
2017-04-04T07:52:11.724Z,39.7
2017-04-04T07:53:21.651Z,39.7
2017-04-04T07:54:31.261Z,39.51
2017-04-04T07:55:41.500Z,39.41
2017-04-04T07:56:51.740Z,39.51
2017-04-04T07:58:01.398Z,39.31
2017-04-04T07:59:11.638Z,39.03
2017-04-04T08:00:21.885Z,39.41
2017-04-04T08:01:31.811Z,38.93
2017-04-04T08:02:41.744Z,39.51
2017-04-04T08:03:51.360Z,39.41
2017-04-04T08:05:01.320Z,39.03
2017-04-04T08:06:11.559Z,39.03
2017-04-04T08:07:21.808Z,39.03
2017-04-04T08:08:31.737Z,39.03
2017-04-04T08:09:41.356Z,39.03
2017-04-04T08:10:51.601Z,39.03
2017-04-04T08:12:01.530Z,38.93
2017-04-04T08:13:11.783Z,39.61
2017-04-04T08:14:21.717Z,39.22
2017-04-04T08:15:31.643Z,39.03
2017-04-04T08:16:41.884Z,38.93
2017-04-04T08:17:51.506Z,38.93
2017-04-04T08:19:01.747Z,39.03
2017-04-04T08:20:11.989Z,39.03
2017-04-04T08:21:21.602Z,39.03
2017-04-04T08:22:31.867Z,38.93
2017-04-04T08:23:41.789Z,39.31
2017-04-04T08:24:52.035Z,38.93
2017-04-04T08:26:01.959Z,38.93
2017-04-04T08:27:11.577Z,38.93
2017-04-04T08:28:21.819Z,39.51
2017-04-04T08:29:31.435Z,39.41
2017-04-04T08:30:41.372Z,39.31
2017-04-04T08:31:51.609Z,39.51
2017-04-04T08:33:01.851Z,39.51
2017-04-04T08:34:11.781Z,39.7
2017-04-04T08:35:22.037Z,39.7
2017-04-04T08:36:32.282Z,39.7
2017-04-04T08:37:42.217Z,39.31
2017-04-04T08:38:51.824Z,39.41
2017-04-04T08:40:02.066Z,39.61
2017-04-04T08:41:11.370Z,39.7
2017-04-04T08:42:21.301Z,39.41
2017-04-04T08:43:31.228Z,39.7
2017-04-04T08:44:41.156Z,39.7
2017-04-04T08:45:51.405Z,39.31
2017-04-04T08:47:01.652Z,39.7
2017-04-04T08:48:11.898Z,39.7
2017-04-04T08:49:22.134Z,39.31
2017-04-04T08:50:32.377Z,39.61
2017-04-04T08:51:42.625Z,39.41
2017-04-04T08:52:52.868Z,39.7
2017-04-04T08:54:03.109Z,39.7
2017-04-04T08:55:12.731Z,39.7
2017-04-04T08:56:22.660Z,39.22
2017-04-04T08:57:32.590Z,39.61
2017-04-04T08:58:42.832Z,39.61
2017-04-04T08:59:52.757Z,39.51
2017-04-04T09:01:02.695Z,39.61
2017-04-04T09:02:12.940Z,39.41
2017-04-04T09:03:23.186Z,39.51
2017-04-04T09:04:33.422Z,39.51
2017-04-04T09:05:43.664Z,39.7
2017-04-04T09:06:53.906Z,39.61
2017-04-04T09:08:04.150Z,39.31
2017-04-04T09:09:14.392Z,39.22
2017-04-04T09:10:24.326Z,39.51
2017-04-04T09:11:34.252Z,39.22
2017-04-04T09:12:44.498Z,39.7
2017-04-04T09:13:54.427Z,39.7
2017-04-04T09:15:04.044Z,39.31
2017-04-04T09:16:14.289Z,39.31
2017-04-04T09:17:23.923Z,39.41
2017-04-04T09:18:34.172Z,39.7
2017-04-04T09:19:44.100Z,39.41
2017-04-04T09:20:54.343Z,39.61
2017-04-04T09:22:04.584Z,39.51
2017-04-04T09:23:14.820Z,39.61
2017-04-04T09:24:25.065Z,39.7
2017-04-04T09:25:34.992Z,39.7
2017-04-04T09:26:44.919Z,39.7
2017-04-04T09:27:54.847Z,39.7
2017-04-04T09:29:04.771Z,39.61
2017-04-04T09:30:15.010Z,39.7
2017-04-04T09:31:24.938Z,39.31
2017-04-04T09:32:35.213Z,39.7
2017-04-04T09:33:45.457Z,39.7
2017-04-04T09:34:55.383Z,39.7
2017-04-04T09:36:05.310Z,39.7
2017-04-04T09:37:14.922Z,39.61
2017-04-04T09:38:25.167Z,39.7
2017-04-04T09:39:35.406Z,39.31
2017-04-04T09:40:45.334Z,39.7
2017-04-04T09:41:55.783Z,39.61
2017-04-04T09:43:05.405Z,39.7
2017-04-04T09:44:15.623Z,39.7
2017-04-04T09:45:25.861Z,39.7
2017-04-04T09:46:35.786Z,39.7
2017-04-04T09:47:46.021Z,39.31
2017-04-04T09:48:55.942Z,39.7
2017-04-04T09:50:06.185Z,39.7
2017-04-04T09:51:15.801Z,39.31
2017-04-04T09:52:25.728Z,39.7
2017-04-04T09:53:35.673Z,39.7
2017-04-04T09:54:45.919Z,39.7
2017-04-04T09:55:56.166Z,39.7
2017-04-04T09:57:05.789Z,39.61
2017-04-04T09:58:15.716Z,39.7
2017-04-04T09:59:25.955Z,39.41
2017-04-04T10:00:35.879Z,39.7
2017-04-04T10:01:46.120Z,39.7
2017-04-04T10:02:56.049Z,39.7
2017-04-04T10:04:06.291Z,39.7
2017-04-04T10:05:16.535Z,39.61
2017-04-04T10:06:26.776Z,39.7
2017-04-04T10:07:37.021Z,39.31
2017-04-04T10:08:46.988Z,39.41
2017-04-04T10:09:57.227Z,39.61
2017-04-04T10:11:07.468Z,39.7
2017-04-04T10:12:17.713Z,39.7
2017-04-04T10:13:27.635Z,39.7
2017-04-04T10:14:37.249Z,39.7
2017-04-04T10:15:46.874Z,39.7
2017-04-04T10:16:57.114Z,39.41
2017-04-04T10:18:07.354Z,39.31
2017-04-04T10:19:17.286Z,39.22
2017-04-04T10:20:27.529Z,39.7
2017-04-04T10:21:37.766Z,39.61
2017-04-04T10:22:47.695Z,39.61
2017-04-04T10:23:57.932Z,39.7
2017-04-04T10:25:07.865Z,39.61
2017-04-04T10:26:18.145Z,39.61
2017-04-04T10:27:28.089Z,39.7
2017-04-04T10:28:38.018Z,39.7
2017-04-04T10:29:47.946Z,39.61
2017-04-04T10:30:58.197Z,39.51
2017-04-04T10:32:08.435Z,39.7
2017-04-04T10:33:18.674Z,39.31
2017-04-04T10:34:28.293Z,39.61
2017-04-04T10:35:38.528Z,39.61
2017-04-04T10:36:48.463Z,39.31
2017-04-04T10:37:58.390Z,39.31
2017-04-04T10:39:08.323Z,39.61
2017-04-04T10:40:18.565Z,39.41
2017-04-04T10:41:28.835Z,39.61
2017-04-04T10:42:38.763Z,39.51
2017-04-04T10:43:48.692Z,39.7
2017-04-04T10:44:58.929Z,39.61
2017-04-04T10:46:08.544Z,39.41
2017-04-04T10:47:18.472Z,39.61
2017-04-04T10:48:28.758Z,39.61
2017-04-04T10:49:38.686Z,39.41
2017-04-04T10:50:48.608Z,39.61
2017-04-04T10:51:58.537Z,39.7
2017-04-04T10:53:08.155Z,39.61
2017-04-04T10:54:18.402Z,39.61
2017-04-04T10:55:28.330Z,39.61
2017-04-04T10:56:37.947Z,39.61
2017-04-04T10:57:47.875Z,39.51
2017-04-04T10:58:58.108Z,39.61
2017-04-04T11:00:08.360Z,39.51
2017-04-04T11:01:18.608Z,39.22
2017-04-04T11:02:28.843Z,39.51
2017-04-04T11:03:39.080Z,39.61
2017-04-04T11:04:49.014Z,39.61
2017-04-04T11:05:59.262Z,39.51
2017-04-04T11:07:08.884Z,39.51
2017-04-04T11:08:19.127Z,39.61
2017-04-04T11:09:29.052Z,39.61
2017-04-04T11:10:38.980Z,39.61
2017-04-04T11:11:48.588Z,39.51
2017-04-04T11:12:58.515Z,39.22
2017-04-04T11:14:08.754Z,39.51
2017-04-04T11:15:18.996Z,39.61
2017-04-04T11:16:28.940Z,39.22
2017-04-04T11:17:38.863Z,39.61
2017-04-04T11:18:48.792Z,39.41
2017-04-04T11:19:58.721Z,39.61
2017-04-04T11:21:08.962Z,39.51
2017-04-04T11:22:19.206Z,39.41
2017-04-04T11:23:29.448Z,39.51
2017-04-04T11:24:39.694Z,39.31
2017-04-04T11:25:49.937Z,39.51
2017-04-04T11:26:59.868Z,39.7
2017-04-04T11:28:09.484Z,39.51
2017-04-04T11:29:19.417Z,39.41
2017-04-04T11:30:29.340Z,39.51
2017-04-04T11:31:39.265Z,39.51
2017-04-04T11:32:49.519Z,39.51
2017-04-04T11:33:59.759Z,39.61
2017-04-04T11:35:10.152Z,39.41
2017-04-04T11:36:19.769Z,39.51
2017-04-04T11:37:29.691Z,39.22
2017-04-04T11:38:39.626Z,39.51
2017-04-04T11:39:49.550Z,39.51
2017-04-04T11:40:59.204Z,39.41
2017-04-04T11:42:09.133Z,39.41
2017-04-04T11:43:18.753Z,39.41
2017-04-04T11:44:28.695Z,39.51
2017-04-04T11:45:38.944Z,39.61
2017-04-04T11:46:48.874Z,39.22
2017-04-04T11:47:58.485Z,39.22
2017-04-04T11:49:08.405Z,39.51
2017-04-04T11:50:18.647Z,39.51
2017-04-04T11:51:28.896Z,39.51
2017-04-04T11:52:39.137Z,39.61
2017-04-04T11:53:49.064Z,39.61
2017-04-04T11:54:58.682Z,39.41
2017-04-04T11:56:08.300Z,39.61
2017-04-04T11:57:17.917Z,39.61
2017-04-04T11:58:27.532Z,39.51
2017-04-04T11:59:37.146Z,39.51
2017-04-04T12:00:47.070Z,39.51
2017-04-04T12:01:57.001Z,39.61
2017-04-04T12:03:07.243Z,39.61
2017-04-04T12:04:17.477Z,39.31
2017-04-04T12:05:27.711Z,39.51
2017-04-04T12:06:37.959Z,39.51
2017-04-04T12:07:48.202Z,39.51
2017-04-04T12:08:58.130Z,39.41
2017-04-04T12:10:08.377Z,39.41
2017-04-04T12:11:18.303Z,39.61
2017-04-04T12:12:28.231Z,39.61
2017-04-04T12:13:38.471Z,39.61
2017-04-04T12:14:48.706Z,39.51
2017-04-04T12:15:58.947Z,39.41
2017-04-04T12:17:09.193Z,39.51
2017-04-04T12:18:19.117Z,39.61
2017-04-04T12:19:29.358Z,39.51
2017-04-04T12:20:39.595Z,39.51
2017-04-04T12:21:49.841Z,39.51
2017-04-04T12:22:59.780Z,39.51
2017-04-04T12:24:09.390Z,39.61
2017-04-04T12:25:19.314Z,39.61
2017-04-04T12:26:29.241Z,39.7
2017-04-04T12:27:39.165Z,39.61
2017-04-04T12:28:49.133Z,39.51
2017-04-04T12:29:59.387Z,39.51
2017-04-04T12:31:09.625Z,39.51
2017-04-04T12:32:19.864Z,39.61
2017-04-04T12:33:29.833Z,39.31
2017-04-04T12:34:39.444Z,39.61
2017-04-04T12:35:49.387Z,39.31
2017-04-04T12:36:59.628Z,39.61
2017-04-04T12:38:09.874Z,39.7
2017-04-04T12:39:20.116Z,39.51
2017-04-04T12:40:30.371Z,39.61
2017-04-04T12:41:39.990Z,39.61
2017-04-04T12:42:50.235Z,39.51
2017-04-04T12:44:00.165Z,39.31
2017-04-04T12:45:10.095Z,39.61
2017-04-04T12:46:20.342Z,39.61
2017-04-04T12:47:30.579Z,39.61
2017-04-04T12:48:40.835Z,39.22
2017-04-04T12:49:50.762Z,39.61
2017-04-04T12:51:01.007Z,39.61
2017-04-04T12:52:11.250Z,39.51
2017-04-04T12:53:21.179Z,39.61
2017-04-04T12:54:31.426Z,39.51
2017-04-04T12:55:41.365Z,37.19
2017-04-04T12:56:51.341Z,36.31
2017-04-04T12:58:00.955Z,37.14
2017-04-04T12:59:11.204Z,38.07
2017-04-04T13:00:21.127Z,38.16
2017-04-04T13:01:31.364Z,38.53
2017-04-04T13:02:41.603Z,38.24
2017-04-04T13:03:51.213Z,38.72
2017-04-04T13:05:01.148Z,38.79
2017-04-04T13:06:11.391Z,39.08
2017-04-04T13:07:21.322Z,39.11
2017-04-04T13:08:31.250Z,38.72
2017-04-04T13:09:41.492Z,38.53
2017-04-04T13:10:51.781Z,38.04
2017-04-04T13:12:02.048Z,38.6
2017-04-04T13:13:12.283Z,38.99
2017-04-04T13:14:22.213Z,39.08
2017-04-04T13:15:32.456Z,38.79
2017-04-04T13:16:42.705Z,39.47
2017-04-04T13:17:52.004Z,39.37
2017-04-04T13:19:01.624Z,38.99
2017-04-04T13:20:11.870Z,39.54
2017-04-04T13:21:21.487Z,39.85
2017-04-04T13:22:31.424Z,39.68
2017-04-04T13:23:41.662Z,39.12
2017-04-04T13:24:51.588Z,38.85
2017-04-04T13:26:01.827Z,38.37
2017-04-04T13:27:11.759Z,38.59
2017-04-04T13:28:21.376Z,38.29
2017-04-04T13:29:31.616Z,38.01
2017-04-04T13:30:41.859Z,38.49
2017-04-04T13:31:52.102Z,38.41
2017-04-04T13:33:02.370Z,38.31
2017-04-04T13:34:12.616Z,38.31
2017-04-04T13:35:22.228Z,38.31
2017-04-04T13:36:32.470Z,38.31
2017-04-04T13:37:42.400Z,38.6
2017-04-04T13:38:52.338Z,38.6
2017-04-04T13:40:02.258Z,38.22
2017-04-04T13:41:12.216Z,38.22
2017-04-04T13:42:22.469Z,38.22
2017-04-04T13:43:32.710Z,38.31
2017-04-04T13:44:42.635Z,38.22
2017-04-04T13:45:52.559Z,38.12
2017-04-04T13:47:02.806Z,38.41
2017-04-04T13:48:13.059Z,38.31
2017-04-04T13:49:22.985Z,38.7
2017-04-04T13:50:32.596Z,38.41
2017-04-04T13:51:42.837Z,38.89
2017-04-04T13:52:53.079Z,38.81
2017-04-04T13:54:03.006Z,38.81
2017-04-04T13:55:13.251Z,38.6
2017-04-04T13:56:23.487Z,38.81
2017-04-04T13:57:33.729Z,38.62
2017-04-04T13:58:43.658Z,38.72
2017-04-04T13:59:53.589Z,38.53
2017-04-04T14:01:03.834Z,38.43
2017-04-04T14:02:13.445Z,38.62
2017-04-04T14:03:23.377Z,38.62
2017-04-04T14:04:33.622Z,38.53
2017-04-04T14:05:43.238Z,38.53
2017-04-04T14:06:53.167Z,38.43
2017-04-04T14:08:03.404Z,38.53
2017-04-04T14:09:13.647Z,38.91
2017-04-04T14:10:23.883Z,38.43
2017-04-04T14:11:33.814Z,38.43
2017-04-04T14:12:43.743Z,38.62
2017-04-04T14:13:53.357Z,38.81
2017-04-04T14:15:03.599Z,38.62
2017-04-04T14:16:13.527Z,38.81
2017-04-04T14:17:23.456Z,38.91
2017-04-04T14:18:33.400Z,38.91
2017-04-04T14:19:43.646Z,39.01
2017-04-04T14:20:53.887Z,38.91
2017-04-04T14:22:03.818Z,38.91
2017-04-04T14:23:13.745Z,38.81
2017-04-04T14:24:23.993Z,38.81
2017-04-04T14:25:34.234Z,38.81
2017-04-04T14:26:44.163Z,38.81
2017-04-04T14:27:54.399Z,39.01
2017-04-04T14:29:04.332Z,39.2
2017-04-04T14:30:13.948Z,38.91
2017-04-04T14:31:24.194Z,39.01
2017-04-04T14:32:34.433Z,38.91
2017-04-04T14:33:44.048Z,38.81
2017-04-04T14:34:54.289Z,39.11
2017-04-04T14:36:04.535Z,39.01
2017-04-04T14:37:14.785Z,39.11
2017-04-04T14:38:24.714Z,39.2
2017-04-04T14:39:34.329Z,39.2
2017-04-04T14:40:43.945Z,38.91
2017-04-04T14:41:53.877Z,39.11
2017-04-04T14:43:04.125Z,38.81
2017-04-04T14:44:14.075Z,38.53
2017-04-04T14:45:24.023Z,38.43
2017-04-04T14:46:34.261Z,38.62
2017-04-04T14:47:44.187Z,38.62
2017-04-04T14:48:53.482Z,38.62
2017-04-04T14:50:03.415Z,38.14
2017-04-04T14:51:13.027Z,38.43
2017-04-04T14:52:22.954Z,38.43
2017-04-04T14:53:33.192Z,38.62
2017-04-04T14:54:43.441Z,38.24
2017-04-04T14:55:53.689Z,38.43
2017-04-04T14:57:03.618Z,38.53
2017-04-04T14:58:13.550Z,38.43
2017-04-04T14:59:23.792Z,38.53
2017-04-04T15:00:34.040Z,38.24
2017-04-04T15:01:44.481Z,38.33
2017-04-04T15:02:54.105Z,38.62
2017-04-04T15:04:04.350Z,38.62
2017-04-04T15:05:14.596Z,38.62